createdAt,value
2023-02-24T06:01:05.192Z,8.15
2023-02-24T06:03:35.846Z,12.38
2023-02-24T06:06:08.933Z,7.85
2023-02-24T06:08:42.662Z,10.75
2023-02-24T06:11:13.135Z,16.70
2023-02-24T06:13:40.017Z,8.70
2023-02-24T06:16:07.551Z,13.07
2023-02-24T06:18:34.233Z,10.82
2023-02-24T06:21:02.709Z,9.30
2023-02-24T06:23:29.419Z,12.38
2023-02-24T06:26:02.384Z,16.25
2023-02-24T06:28:28.995Z,6.68
2023-02-24T06:30:56.533Z,10.82
2023-02-24T06:33:27.344Z,11.40
2023-02-24T06:35:56.804Z,10.35
2023-02-24T06:38:40.253Z,8.88
2023-02-24T06:41:13.752Z,9.10
2023-02-24T06:43:43.579Z,10.43
2023-02-24T06:46:13.014Z,12.82
2023-02-24T06:48:40.408Z,13.18
2023-02-24T06:51:10.724Z,11.57
2023-02-24T06:53:43.486Z,15.45
2023-02-24T06:56:17.968Z,9.15
2023-02-24T06:58:47.200Z,13.43
2023-02-24T07:01:16.071Z,13.18
2023-02-24T07:04:02.652Z,11.23
2023-02-24T07:06:32.055Z,13.15
2023-02-24T07:11:28.249Z,9.32
2023-02-24T07:13:57.766Z,16.52
2023-02-24T07:16:25.646Z,9.15
2023-02-24T07:18:57.663Z,20.83
2023-02-24T07:21:26.172Z,10.18
2023-02-24T07:23:59.871Z,10.65
2023-02-24T07:26:27.786Z,7.47
2023-02-24T07:28:55.651Z,7.63
2023-02-24T07:31:24.742Z,8.48
2023-02-24T07:34:02.199Z,21.40
2023-02-24T07:36:38.831Z,12.35
2023-02-24T07:39:09.483Z,14.10
2023-02-24T07:41:37.018Z,11.90
2023-02-24T07:44:04.113Z,13.57
2023-02-24T07:46:31.271Z,15.85
2023-02-24T07:49:01.834Z,17.17
2023-02-24T07:51:29.585Z,9.88
2023-02-24T07:54:00.207Z,11.68
2023-02-24T07:56:28.989Z,12.10
2023-02-24T07:59:00.472Z,17.88
2023-02-24T08:01:38.739Z,11.95
2023-02-24T08:04:12.759Z,13.90
2023-02-24T08:06:46.216Z,6.35
2023-02-24T08:09:17.900Z,8.30
2023-02-24T08:11:52.304Z,8.63
2023-02-24T08:14:44.800Z,9.30
2023-02-24T08:17:12.306Z,10.27
2023-02-24T08:19:44.043Z,8.57
2023-02-24T08:22:28.128Z,13.43
2023-02-24T08:25:00.847Z,11.00
2023-02-24T08:27:32.275Z,14.63
2023-02-24T08:30:03.948Z,9.00
2023-02-24T08:32:46.802Z,8.40
2023-02-24T08:35:16.933Z,8.98
2023-02-24T08:37:49.953Z,7.70
2023-02-24T08:40:32.578Z,8.52
2023-02-24T08:43:15.920Z,14.40
2023-02-24T08:45:46.786Z,12.95
2023-02-24T08:48:26.337Z,14.15
2023-02-24T08:50:57.326Z,12.85
2023-02-24T08:53:32.041Z,9.68
2023-02-24T08:56:09.641Z,6.93
2023-02-24T08:58:40.922Z,7.80
2023-02-24T09:01:19.203Z,9.80
2023-02-24T09:03:48.224Z,15.73
2023-02-24T09:06:25.628Z,23.95
2023-02-24T09:09:15.168Z,14.45
2023-02-24T09:11:45.204Z,21.30
2023-02-24T09:17:05.504Z,10.07
2023-02-24T09:19:51.686Z,12.07
2023-02-24T09:22:40.653Z,10.48
2023-02-24T09:25:18.518Z,9.02
2023-02-24T09:27:52.176Z,11.55
2023-02-24T09:30:37.816Z,9.18
2023-02-24T09:33:20.797Z,8.90
2023-02-24T09:36:10.087Z,8.00
2023-02-24T09:38:56.390Z,10.35
2023-02-24T09:41:33.585Z,13.25
2023-02-24T09:44:19.449Z,14.52
2023-02-24T09:47:13.581Z,14.07
2023-02-24T09:49:59.653Z,15.77
2023-02-24T09:52:41.226Z,8.07
2023-02-24T09:55:26.238Z,17.48
2023-02-24T09:58:15.543Z,8.63
2023-02-24T10:00:58.436Z,10.77
2023-02-24T10:03:48.516Z,18.45
2023-02-24T10:06:21.038Z,16.85
2023-02-24T10:09:00.234Z,9.90
2023-02-24T10:11:35.824Z,11.35
2023-02-24T10:14:07.527Z,13.85
2023-02-24T10:16:43.497Z,10.40
2023-02-24T10:19:18.543Z,20.50
2023-02-24T10:21:50.193Z,14.80
2023-02-24T10:24:34.536Z,8.05
2023-02-24T10:27:27.704Z,12.95
2023-02-24T10:29:55.960Z,11.10
2023-02-24T10:32:36.612Z,12.40
2023-02-24T10:35:03.590Z,9.27
2023-02-24T10:37:30.950Z,12.68
2023-02-24T10:40:10.303Z,15.30
2023-02-24T10:42:44.910Z,14.50
2023-02-24T10:45:18.284Z,14.00
2023-02-24T10:47:57.210Z,17.45
2023-02-24T10:50:34.907Z,15.48
2023-02-24T10:53:26.322Z,15.35
2023-02-24T10:56:14.867Z,14.95
2023-02-24T10:58:49.951Z,17.27
2023-02-24T11:01:40.762Z,10.77
2023-02-24T11:04:28.693Z,12.60
2023-02-24T11:07:11.997Z,15.57
2023-02-24T11:09:53.419Z,16.05
2023-02-24T11:12:41.711Z,19.00
2023-02-24T11:15:51.250Z,15.60
2023-02-24T11:18:23.437Z,14.55
2023-02-24T11:21:06.374Z,13.10
2023-02-24T11:23:43.400Z,18.35
2023-02-24T11:26:33.967Z,20.33
2023-02-24T11:29:22.377Z,18.38
2023-02-24T11:32:31.929Z,17.23
2023-02-24T11:35:12.658Z,17.05
2023-02-24T11:37:59.582Z,17.15
2023-02-24T11:40:37.749Z,16.58
2023-02-24T11:43:18.510Z,16.83
2023-02-24T11:45:54.817Z,16.02
2023-02-24T11:48:36.387Z,19.33
2023-02-24T11:51:06.374Z,20.00
2023-02-24T11:56:15.659Z,14.02
2023-02-24T11:58:53.246Z,18.50
2023-02-24T12:01:29.055Z,12.18
2023-02-24T12:04:11.028Z,16.92
2023-02-24T12:06:44.578Z,14.57
2023-02-24T12:09:23.169Z,16.02
2023-02-24T12:11:57.947Z,16.90
2023-02-24T12:14:40.131Z,14.93
2023-02-24T12:17:23.870Z,17.45
2023-02-24T12:20:14.465Z,16.77
2023-02-24T12:22:50.551Z,17.75
2023-02-24T12:25:25.549Z,20.88
2023-02-24T12:28:27.604Z,20.55
2023-02-24T12:31:09.160Z,21.90
2023-02-24T12:33:56.885Z,23.95
2023-02-24T12:36:33.114Z,25.52
2023-02-24T12:39:16.454Z,28.00
2023-02-24T12:41:58.963Z,24.83
2023-02-24T12:44:44.524Z,26.02
2023-02-24T12:47:36.368Z,23.85
2023-02-24T12:50:18.445Z,24.05
2023-02-24T12:52:54.031Z,24.27
2023-02-24T12:55:24.143Z,24.85
2023-02-24T12:58:12.553Z,25.35
2023-02-24T13:00:54.961Z,33.00
2023-02-24T13:03:47.836Z,24.50
2023-02-24T13:06:48.674Z,30.98
2023-02-24T13:09:24.803Z,29.05
2023-02-24T13:11:51.301Z,28.63
2023-02-24T13:14:43.745Z,33.75
2023-02-24T13:17:10.301Z,27.55
2023-02-24T13:19:42.314Z,26.58
2023-02-24T13:22:26.042Z,29.48
2023-02-24T13:25:08.294Z,28.38
2023-02-24T13:27:41.427Z,29.42
2023-02-24T13:30:14.799Z,29.73
2023-02-24T13:32:44.865Z,25.63
2023-02-24T13:35:15.180Z,26.02
2023-02-24T13:37:45.760Z,29.17
2023-02-24T13:40:29.124Z,30.42
2023-02-24T13:42:58.938Z,30.77
2023-02-24T13:45:29.376Z,29.73
2023-02-24T13:48:33.260Z,36.38
2023-02-24T13:51:23.077Z,26.92
2023-02-24T13:54:04.863Z,54.95
2023-02-24T13:56:40.266Z,30.90
2023-02-24T13:59:36.298Z,31.58
2023-02-24T14:02:21.663Z,32.08
2023-02-24T14:04:56.950Z,27.35
2023-02-24T14:07:36.168Z,32.30
2023-02-24T14:10:13.894Z,33.80
2023-02-24T14:12:43.372Z,40.30
2023-02-24T14:15:15.027Z,27.58
2023-02-24T14:17:42.323Z,25.02
2023-02-24T14:20:17.444Z,25.40
2023-02-24T14:22:54.796Z,28.55
2023-02-24T14:25:28.196Z,26.02
2023-02-24T14:27:59.304Z,25.52
2023-02-24T14:30:41.116Z,32.63
2023-02-24T14:33:19.521Z,28.33
2023-02-24T14:35:47.532Z,26.20
2023-02-24T14:38:46.693Z,27.08
2023-02-24T14:41:25.163Z,29.63
2023-02-24T14:43:52.638Z,27.63
2023-02-24T14:46:20.956Z,26.73
2023-02-24T14:48:56.247Z,29.45
2023-02-24T14:51:25.686Z,30.65
2023-02-24T14:53:56.794Z,24.60
2023-02-24T14:56:30.603Z,28.95
2023-02-24T14:59:02.735Z,23.75
2023-02-24T15:01:42.864Z,25.35
2023-02-24T15:04:13.724Z,30.25
2023-02-24T15:06:43.156Z,26.60
2023-02-24T15:09:21.688Z,26.08
2023-02-24T15:11:50.974Z,29.58
2023-02-24T15:14:24.984Z,25.55
2023-02-24T15:16:57.630Z,28.75
2023-02-24T15:19:24.125Z,29.10
2023-02-24T15:21:51.340Z,30.33
2023-02-24T15:24:20.979Z,29.88
2023-02-24T15:27:01.515Z,25.30
2023-02-24T15:29:30.827Z,30.88
2023-02-24T15:32:00.454Z,33.70
2023-02-24T15:34:31.186Z,30.50
2023-02-24T15:37:07.763Z,31.63
2023-02-24T15:39:36.870Z,33.58
2023-02-24T15:42:29.069Z,28.95
2023-02-24T15:45:01.212Z,29.48
2023-02-24T15:47:30.210Z,31.20
2023-02-24T15:49:56.806Z,38.78
2023-02-24T15:52:27.140Z,34.20
2023-02-24T15:54:56.558Z,34.25
2023-02-24T15:57:25.226Z,43.00
2023-02-24T15:59:52.021Z,34.45
2023-02-24T16:02:21.335Z,31.27
2023-02-24T16:04:49.608Z,28.30
2023-02-24T16:07:22.760Z,29.50
2023-02-24T16:09:52.404Z,33.40
2023-02-24T16:12:24.291Z,33.08
2023-02-24T16:14:55.803Z,27.48
2023-02-24T16:17:39.907Z,27.95
2023-02-24T16:20:18.528Z,26.73
2023-02-24T16:22:46.039Z,28.60
2023-02-24T16:25:16.362Z,29.85
2023-02-24T16:27:43.665Z,22.52
2023-02-24T16:30:20.812Z,24.05
2023-02-24T16:32:50.116Z,22.30
2023-02-24T16:35:20.069Z,23.42
2023-02-24T16:37:48.364Z,25.30
2023-02-24T16:40:23.218Z,25.10
2023-02-24T16:42:53.177Z,24.77
2023-02-24T16:47:49.457Z,25.55
2023-02-24T16:50:22.931Z,28.38
2023-02-24T16:52:50.573Z,29.95
2023-02-24T16:55:18.131Z,30.65
2023-02-24T16:57:45.329Z,30.27
2023-02-24T17:00:14.843Z,34.20
2023-02-24T17:02:44.806Z,34.10
2023-02-24T17:07:43.360Z,25.58
2023-02-24T17:10:10.451Z,31.10
2023-02-24T17:12:37.771Z,27.65
2023-02-24T17:15:05.000Z,30.27
2023-02-24T17:17:31.922Z,41.58
2023-02-24T17:19:58.573Z,35.42
2023-02-24T17:22:25.921Z,35.65
2023-02-24T17:24:52.550Z,33.40
2023-02-24T17:27:19.418Z,28.52
2023-02-24T17:29:45.985Z,27.98
2023-02-24T17:32:13.461Z,17.83
2023-02-24T17:34:40.170Z,22.25
2023-02-24T17:37:07.431Z,22.17
2023-02-24T17:39:34.010Z,15.70
2023-02-24T17:42:02.577Z,19.50
2023-02-24T17:44:29.561Z,23.48
2023-02-24T17:46:56.828Z,18.25
2023-02-24T17:49:23.445Z,12.82
2023-02-24T17:51:50.354Z,14.35
2023-02-24T17:54:16.934Z,11.60
2023-02-24T17:56:43.893Z,13.82
2023-02-24T17:59:10.488Z,22.67
2023-02-24T18:01:37.820Z,11.45
2023-02-24T18:04:04.554Z,8.27
2023-02-24T18:06:31.822Z,7.80
2023-02-24T18:08:58.776Z,7.45
2023-02-24T18:11:26.509Z,5.68
2023-02-24T18:13:55.090Z,15.75
2023-02-24T18:16:22.807Z,20.35
2023-02-24T18:18:50.244Z,15.05
2023-02-24T18:21:17.940Z,15.05
2023-02-24T18:23:45.432Z,13.80
2023-02-24T18:26:13.253Z,9.07
2023-02-24T18:28:39.917Z,12.18
2023-02-24T18:31:16.729Z,10.60
2023-02-24T18:33:44.131Z,6.43
2023-02-24T18:36:12.143Z,5.80
2023-02-24T18:38:39.328Z,5.57
2023-02-24T18:41:09.186Z,6.47
2023-02-24T18:43:36.640Z,3.85
2023-02-24T18:46:06.619Z,3.45
2023-02-24T18:51:02.070Z,4.18
2023-02-24T18:53:31.513Z,7.38
2023-02-24T18:56:03.501Z,8.75
2023-02-24T18:58:30.614Z,6.70
2023-02-24T19:00:57.916Z,8.70
2023-02-24T19:03:25.336Z,11.10
2023-02-24T19:05:52.561Z,4.05
2023-02-24T19:08:19.286Z,17.10
2023-02-24T19:10:46.519Z,12.93
2023-02-24T19:13:13.127Z,9.48
2023-02-24T19:15:40.783Z,7.53
2023-02-24T19:18:07.348Z,7.60
2023-02-24T19:20:34.505Z,5.38
2023-02-24T19:23:01.385Z,5.75
2023-02-24T19:25:28.725Z,9.98
2023-02-24T19:27:55.363Z,8.23
2023-02-24T19:30:22.631Z,11.45
2023-02-24T19:32:49.552Z,10.82
2023-02-24T19:35:17.029Z,18.38
2023-02-24T19:37:43.690Z,10.00
2023-02-24T19:40:11.742Z,12.30
2023-02-24T19:42:38.352Z,11.30
2023-02-24T19:45:05.330Z,13.43
2023-02-24T19:47:31.903Z,14.07
2023-02-24T19:49:59.076Z,26.52
2023-02-24T19:52:25.634Z,25.33
2023-02-24T19:54:52.502Z,16.70
2023-02-24T19:57:19.076Z,16.23
2023-02-24T19:59:46.259Z,12.55
2023-02-24T20:02:12.893Z,19.13
2023-02-24T20:04:40.196Z,13.65
2023-02-24T20:07:06.799Z,13.57
2023-02-24T20:09:33.390Z,12.45
2023-02-24T20:12:02.049Z,12.57
2023-02-24T20:14:29.542Z,6.63
2023-02-24T20:16:56.561Z,16.40
2023-02-24T20:19:23.181Z,12.48
2023-02-24T20:21:50.301Z,14.13
2023-02-24T20:24:18.005Z,14.93
2023-02-24T20:26:49.775Z,11.50
2023-02-24T20:29:18.676Z,12.75
2023-02-24T20:31:46.784Z,9.77
2023-02-24T20:34:16.175Z,17.08
2023-02-24T20:39:13.399Z,11.05
2023-02-24T20:44:08.128Z,14.25
2023-02-24T20:46:35.622Z,18.85
2023-02-24T20:49:05.418Z,15.52
2023-02-24T20:51:35.912Z,20.98
2023-02-24T20:54:03.161Z,16.73
2023-02-24T20:56:34.330Z,17.92
2023-02-24T20:59:04.197Z,18.48
2023-02-24T21:01:32.249Z,16.15
2023-02-24T21:03:59.724Z,15.38
2023-02-24T21:06:28.559Z,17.70
2023-02-24T21:08:56.109Z,8.88
2023-02-24T21:11:23.616Z,13.23
2023-02-24T21:13:51.876Z,13.00
2023-02-24T21:16:21.181Z,18.40
2023-02-24T21:18:49.803Z,17.77
2023-02-24T21:21:17.670Z,16.73
2023-02-24T21:23:44.325Z,18.98
2023-02-24T21:26:12.858Z,11.88
2023-02-24T21:28:40.536Z,13.70
